Time;durP1;ratioP1;P1;durP2;ratioP2;P2;SDS_P1;SDS_P2;PMS_P1;PMS_P2;Temp;Humidity;BMP_temperature;BMP_pressure;BME280_temperature;BME280_humidity;BME280_pressure;Samples;Min_cycle;Max_cycle;Signal;HPM_P1;HPM_P2
2023/07/01 00:03:59;;;;;;;3.35;2.30;;;;;;;;;;10255156;28;20076;-59
2023/07/01 00:08:58;;;;;;;2.72;2.38;;;;;;;;;;10253653;28;20064;-59
2023/07/01 00:13:56;;;;;;;3.72;2.78;;;;;;;;;;10254556;28;20080;-59
2023/07/01 00:18:55;;;;;;;3.15;2.90;;;;;;;;;;10253138;28;20084;-59
2023/07/01 00:23:54;;;;;;;5.57;2.38;;;;;;;;;;10253460;28;20072;-60
2023/07/01 00:28:52;;;;;;;4.05;2.70;;;;;;;;;;10253347;28;20459;-60
2023/07/01 00:33:52;;;;;;;3.10;2.33;;;;;;;;;;10255753;28;20081;-60
2023/07/01 00:38:52;;;;;;;2.65;2.45;;;;;;;;;;10253529;28;20076;-60
2023/07/01 00:43:50;;;;;;;5.57;2.67;;;;;;;;;;10252623;28;20502;-60
2023/07/01 00:48:48;;;;;;;3.78;2.67;;;;;;;;;;10253118;28;20160;-60
2023/07/01 00:53:46;;;;;;;2.78;2.42;;;;;;;;;;10251999;28;20070;-59
2023/07/01 00:58:46;;;;;;;3.45;2.85;;;;;;;;;;10266482;28;20092;-59
2023/07/01 01:03:48;;;;;;;3.30;2.80;;;;;;;;;;10252627;28;20068;-59
2023/07/01 01:08:52;;;;;;;4.97;2.88;;;;;;;;;;10259544;28;20077;-59
2023/07/01 01:13:51;;;;;;;5.13;2.72;;;;;;;;;;10253337;28;20536;-59
2023/07/01 01:18:51;;;;;;;8.70;2.95;;;;;;;;;;10250558;28;20085;-61
2023/07/01 01:23:54;;;;;;;4.15;2.30;;;;;;;;;;10250921;28;20507;-60
2023/07/01 01:28:54;;;;;;;2.47;2.28;;;;;;;;;;10251117;28;20069;-60
2023/07/01 01:33:52;;;;;;;3.35;2.40;;;;;;;;;;10253798;28;20140;-60
2023/07/01 01:38:51;;;;;;;2.85;2.42;;;;;;;;;;10249662;28;20072;-60
2023/07/01 01:43:52;;;;;;;4.05;2.53;;;;;;;;;;10252071;28;20095;-60
2023/07/01 01:48:53;;;;;;;2.60;2.40;;;;;;;;;;10245518;28;20100;-60
2023/07/01 01:53:53;;;;;;;3.53;2.65;;;;;;;;;;10247566;28;20484;-60
2023/07/01 01:58:51;;;;;;;3.97;2.78;;;;;;;;;;10249431;28;20088;-59
2023/07/01 02:03:49;;;;;;;4.05;2.53;;;;;;;;;;10256229;28;20080;-60
2023/07/01 02:08:49;;;;;;;3.58;2.00;;;;;;;;;;10250770;28;20061;-59
2023/07/01 02:13:47;;;;;;;2.67;2.47;;;;;;;;;;10247741;28;20065;-59
2023/07/01 02:18:45;;;;;;;3.97;2.53;;;;;;;;;;10248610;28;20064;-59
2023/07/01 02:23:44;;;;;;;3.88;2.72;;;;;;;;;;10250871;28;20068;-60
2023/07/01 02:28:43;;;;;;;3.45;3.15;;;;;;;;;;10249563;28;20072;-60
2023/07/01 02:33:42;;;;;;;6.45;2.97;;;;;;;;;;10249196;28;20087;-59
2023/07/01 02:38:40;;;;;;;2.85;2.65;;;;;;;;;;10247798;28;20073;-59
2023/07/01 02:43:38;;;;;;;2.92;2.65;;;;;;;;;;10246404;28;20080;-60
2023/07/01 02:48:38;;;;;;;6.57;2.50;;;;;;;;;;10248678;28;20088;-60
2023/07/01 02:53:36;;;;;;;2.75;2.55;;;;;;;;;;10243650;28;20483;-59
2023/07/01 02:58:34;;;;;;;5.43;2.47;;;;;;;;;;10249129;28;20566;-60
2023/07/01 03:03:32;;;;;;;2.65;2.35;;;;;;;;;;10262469;28;20068;-60
2023/07/01 03:08:32;;;;;;;2.63;2.42;;;;;;;;;;10242211;28;20081;-60
2023/07/01 03:13:30;;;;;;;3.75;2.65;;;;;;;;;;10251535;28;20065;-60
2023/07/01 03:18:29;;;;;;;5.45;2.38;;;;;;;;;;10261658;28;20091;-59
2023/07/01 03:23:27;;;;;;;5.80;2.30;;;;;;;;;;10256547;28;20088;-60
2023/07/01 03:28:27;;;;;;;3.53;2.72;;;;;;;;;;10259338;28;20069;-60
2023/07/01 03:33:25;;;;;;;3.38;2.83;;;;;;;;;;10253840;28;20080;-58
2023/07/01 03:38:24;;;;;;;3.50;2.90;;;;;;;;;;10258643;28;20049;-60
2023/07/01 03:43:22;;;;;;;6.25;3.30;;;;;;;;;;10254211;28;20593;-59
2023/07/01 03:48:22;;;;;;;6.85;3.00;;;;;;;;;;10257440;28;20084;-59
2023/07/01 03:53:20;;;;;;;4.22;2.90;;;;;;;;;;10255589;28;20077;-59
2023/07/01 03:58:21;;;;;;;3.85;2.92;;;;;;;;;;10254281;28;20520;-59
2023/07/01 04:03:23;;;;;;;6.45;2.70;;;;;;;;;;10256520;28;20081;-59
2023/07/01 04:08:23;;;;;;;4.25;3.28;;;;;;;;;;10254164;28;20534;-59
2023/07/01 04:13:21;;;;;;;4.57;3.63;;;;;;;;;;10253518;28;20069;-59
2023/07/01 04:18:20;;;;;;;5.00;3.15;;;;;;;;;;10253600;28;20069;-60
2023/07/01 04:23:18;;;;;;;3.50;3.20;;;;;;;;;;10253319;28;20073;-60
2023/07/01 04:28:17;;;;;;;3.33;3.03;;;;;;;;;;10257976;28;20080;-59
2023/07/01 04:33:16;;;;;;;6.70;3.55;;;;;;;;;;10250370;28;20073;-60
2023/07/01 04:38:14;;;;;;;5.40;3.05;;;;;;;;;;10254787;28;20111;-60
2023/07/01 04:43:12;;;;;;;3.38;3.05;;;;;;;;;;10254146;28;20525;-60
2023/07/01 04:48:12;;;;;;;2.90;2.60;;;;;;;;;;10252195;28;20088;-59
2023/07/01 04:53:10;;;;;;;7.55;4.93;;;;;;;;;;10251717;28;20486;-59
2023/07/01 04:58:08;;;;;;;12.25;4.45;;;;;;;;;;10250876;28;20080;-60
2023/07/01 05:03:06;;;;;;;11.20;3.85;;;;;;;;;;10252951;28;20104;-60
2023/07/01 05:08:06;;;;;;;6.35;3.05;;;;;;;;;;10251070;28;20073;-60
2023/07/01 05:13:04;;;;;;;3.85;3.45;;;;;;;;;;10254579;28;20085;-60
2023/07/01 05:18:03;;;;;;;5.03;2.72;;;;;;;;;;10251066;28;20081;-60
2023/07/01 05:23:01;;;;;;;4.35;2.60;;;;;;;;;;10252346;28;20068;-60
2023/07/01 05:28:01;;;;;;;3.55;3.25;;;;;;;;;;10266481;28;20064;-59
2023/07/01 05:32:59;;;;;;;3.50;3.20;;;;;;;;;;10246786;28;20078;-59
2023/07/01 05:37:57;;;;;;;3.50;3.05;;;;;;;;;;10250733;28;20080;-60
2023/07/01 05:42:55;;;;;;;4.85;2.92;;;;;;;;;;10251654;28;20065;-60
2023/07/01 05:47:55;;;;;;;6.22;3.53;;;;;;;;;;10251564;28;20105;-60
2023/07/01 05:52:53;;;;;;;3.53;2.88;;;;;;;;;;10247110;28;20068;-59
2023/07/01 05:57:51;;;;;;;4.65;3.28;;;;;;;;;;10247903;28;20084;-59
2023/07/01 06:02:49;;;;;;;4.85;3.55;;;;;;;;;;10250905;28;20093;-59
2023/07/01 06:07:49;;;;;;;6.63;4.47;;;;;;;;;;10250317;28;20084;-60
2023/07/01 06:12:47;;;;;;;7.22;4.60;;;;;;;;;;10250854;28;20073;-60
2023/07/01 06:17:45;;;;;;;6.00;3.85;;;;;;;;;;10249887;28;20080;-61
2023/07/01 06:22:44;;;;;;;4.20;2.58;;;;;;;;;;10249104;28;20080;-60
2023/07/01 06:27:43;;;;;;;3.65;2.70;;;;;;;;;;10250567;28;20068;-59
2023/07/01 06:32:42;;;;;;;6.43;3.90;;;;;;;;;;10248564;28;20068;-60
2023/07/01 06:37:40;;;;;;;6.82;3.40;;;;;;;;;;10245473;28;20077;-60
2023/07/01 06:42:40;;;;;;;6.05;5.03;;;;;;;;;;10249133;28;20494;-59
2023/07/01 06:47:40;;;;;;;7.97;3.28;;;;;;;;;;10247836;28;20073;-60
2023/07/01 06:52:38;;;;;;;6.50;3.10;;;;;;;;;;10253618;28;20073;-59
2023/07/01 06:57:36;;;;;;;6.70;4.38;;;;;;;;;;10258994;28;20367;-59
2023/07/01 07:02:35;;;;;;;4.93;4.20;;;;;;;;;;10254053;28;20518;-60
2023/07/01 07:07:34;;;;;;;5.50;4.18;;;;;;;;;;10256393;28;20076;-59
2023/07/01 07:12:32;;;;;;;34.50;22.88;;;;;;;;;;10258531;28;20088;-59
2023/07/01 07:17:31;;;;;;;9.00;3.85;;;;;;;;;;10258371;28;20065;-60
2023/07/01 07:22:29;;;;;;;3.78;3.33;;;;;;;;;;10257194;28;20080;-60
2023/07/01 07:27:29;;;;;;;3.83;3.40;;;;;;;;;;10256023;28;20077;-60
2023/07/01 07:32:27;;;;;;;3.75;3.35;;;;;;;;;;10255176;28;20075;-61
2023/07/01 07:37:25;;;;;;;5.18;3.00;;;;;;;;;;10257822;28;20073;-60
2023/07/01 07:42:23;;;;;;;4.10;3.53;;;;;;;;;;10252515;28;20577;-60
2023/07/01 07:47:23;;;;;;;3.30;3.00;;;;;;;;;;10254159;28;20073;-60
2023/07/01 07:52:21;;;;;;;3.25;2.85;;;;;;;;;;10255012;28;20075;-60
2023/07/01 07:57:20;;;;;;;4.63;3.03;;;;;;;;;;10253877;28;20081;-59
2023/07/01 08:02:18;;;;;;;3.10;2.90;;;;;;;;;;10253533;28;20092;-59
2023/07/01 08:07:17;;;;;;;3.30;2.65;;;;;;;;;;10251627;28;20069;-58
2023/07/01 08:12:16;;;;;;;3.97;3.22;;;;;;;;;;10252707;28;20474;-61
2023/07/01 08:17:14;;;;;;;4.07;2.70;;;;;;;;;;10253584;28;20491;-60
2023/07/01 08:22:12;;;;;;;3.45;2.25;;;;;;;;;;10253511;28;20080;-60
2023/07/01 08:27:11;;;;;;;2.10;1.90;;;;;;;;;;10256039;28;20092;-60
2023/07/01 08:32:10;;;;;;;2.83;2.53;;;;;;;;;;10252731;28;20510;-60
2023/07/01 08:37:08;;;;;;;4.28;2.78;;;;;;;;;;10252828;28;20079;-60
2023/07/01 08:42:09;;;;;;;5.85;2.28;;;;;;;;;;10254160;28;20468;-60
2023/07/01 08:47:09;;;;;;;3.67;3.38;;;;;;;;;;10247214;28;20099;-60
2023/07/01 08:52:09;;;;;;;4.18;2.08;;;;;;;;;;10252768;28;20108;-60
2023/07/01 08:57:08;;;;;;;2.92;2.35;;;;;;;;;;10252440;28;20068;-60
2023/07/01 09:02:07;;;;;;;2.58;2.00;;;;;;;;;;10246872;28;20076;-61
2023/07/01 09:07:08;;;;;;;4.50;2.03;;;;;;;;;;10252112;28;20323;-60
2023/07/01 09:12:07;;;;;;;4.45;2.42;;;;;;;;;;10251378;28;20076;-61
2023/07/01 09:17:26;;;;;;;2.97;2.05;;;;;;;;;;10250303;28;20079;-61
2023/07/01 09:22:25;;;;;;;2.25;1.95;;;;;;;;;;10252376;28;20088;-60
2023/07/01 09:27:23;;;;;;;4.97;2.05;;;;;;;;;;10253294;28;20451;-60
2023/07/01 09:32:29;;;;;;;2.17;2.00;;;;;;;;;;10250247;28;20083;-60
2023/07/01 09:37:29;;;;;;;2.60;1.92;;;;;;;;;;10251966;28;20080;-61
2023/07/01 09:42:29;;;;;;;2.67;1.77;;;;;;;;;;10253875;28;20103;-61
2023/07/01 09:47:28;;;;;;;2.13;1.92;;;;;;;;;;10249616;28;20099;-60
2023/07/01 09:52:34;;;;;;;2.42;2.05;;;;;;;;;;10249075;28;20084;-61
2023/07/01 09:57:32;;;;;;;2.30;1.90;;;;;;;;;;10252038;28;20080;-60
2023/07/01 10:02:31;;;;;;;2.30;2.00;;;;;;;;;;10250371;28;20136;-60
2023/07/01 10:07:30;;;;;;;4.22;1.90;;;;;;;;;;10248109;28;20091;-60
2023/07/01 10:12:32;;;;;;;2.83;2.30;;;;;;;;;;10250953;28;20103;-61
2023/07/01 10:17:44;;;;;;;3.33;2.40;;;;;;;;;;10249918;28;20589;-60
2023/07/01 10:22:53;;;;;;;2.10;1.90;;;;;;;;;;10249889;28;20498;-60
2023/07/01 10:28:14;;;;;;;2.50;2.00;;;;;;;;;;10250625;28;20085;-60
2023/07/01 10:33:27;;;;;;;3.53;1.90;;;;;;;;;;10248920;28;20092;-60
2023/07/01 10:38:30;;;;;;;1.97;1.87;;;;;;;;;;10247532;28;20478;-60
2023/07/01 10:43:29;;;;;;;2.65;1.95;;;;;;;;;;10250690;28;20080;-60
2023/07/01 10:48:27;;;;;;;3.53;1.83;;;;;;;;;;10247592;28;20119;-60
2023/07/01 10:53:27;;;;;;;5.32;2.13;;;;;;;;;;10249363;28;20095;-59
2023/07/01 10:58:29;;;;;;;1.95;1.85;;;;;;;;;;10249646;28;20076;-59
2023/07/01 11:03:47;;;;;;;1.63;1.50;;;;;;;;;;10249324;28;20072;-59
2023/07/01 11:08:48;;;;;;;2.20;2.10;;;;;;;;;;10249112;28;20080;-59
2023/07/01 11:13:54;;;;;;;5.28;2.80;;;;;;;;;;10248709;28;20479;-59
2023/07/01 11:18:54;;;;;;;4.90;2.17;;;;;;;;;;10246658;28;20442;-59
2023/07/01 11:23:54;;;;;;;2.53;2.03;;;;;;;;;;10330011;28;20064;-60
2023/07/01 11:28:53;;;;;;;2.10;1.90;;;;;;;;;;10329481;28;20079;-60
2023/07/01 11:33:52;;;;;;;3.97;2.15;;;;;;;;;;10330337;28;20071;-60
2023/07/01 11:38:50;;;;;;;2.10;1.90;;;;;;;;;;10331591;28;20075;-61
2023/07/01 11:43:49;;;;;;;5.07;1.90;;;;;;;;;;10337522;28;20083;-60
2023/07/01 11:48:48;;;;;;;3.53;1.80;;;;;;;;;;10322292;28;20079;-60
2023/07/01 11:53:55;;;;;;;3.20;2.17;;;;;;;;;;10336242;28;20076;-60
2023/07/01 11:58:55;;;;;;;2.42;2.20;;;;;;;;;;10334633;28;20068;-60
2023/07/01 12:04:01;;;;;;;5.10;2.08;;;;;;;;;;10333530;28;20068;-60
2023/07/01 12:09:02;;;;;;;3.42;1.95;;;;;;;;;;10336435;28;20064;-60
2023/07/01 12:14:18;;;;;;;4.72;2.28;;;;;;;;;;10333767;28;20632;-60
2023/07/01 12:19:17;;;;;;;2.35;1.80;;;;;;;;;;10334257;28;20096;-60
2023/07/01 12:24:19;;;;;;;1.60;1.50;;;;;;;;;;10334347;28;20294;-60
2023/07/01 12:29:18;;;;;;;2.20;2.00;;;;;;;;;;10337552;28;20457;-60
2023/07/01 12:34:17;;;;;;;3.50;1.70;;;;;;;;;;10333782;28;20104;-59
2023/07/01 12:39:17;;;;;;;5.10;2.00;;;;;;;;;;10333677;28;20067;-60
2023/07/01 12:44:15;;;;;;;2.40;2.10;;;;;;;;;;10334015;28;20075;-59
2023/07/01 12:49:15;;;;;;;2.70;1.75;;;;;;;;;;10304285;28;20156;-60
2023/07/01 12:54:13;;;;;;;2.40;2.17;;;;;;;;;;10289018;28;20072;-60
2023/07/01 12:59:16;;;;;;;3.27;2.00;;;;;;;;;;10291974;28;20086;-59
2023/07/01 13:04:17;;;;;;;3.47;1.70;;;;;;;;;;10292365;28;20341;-61
2023/07/01 13:09:18;;;;;;;2.22;2.03;;;;;;;;;;10292663;28;20517;-59
2023/07/01 13:14:16;;;;;;;5.65;1.70;;;;;;;;;;10292759;28;20068;-60
2023/07/01 13:19:15;;;;;;;3.13;1.70;;;;;;;;;;10290585;28;20072;-61
2023/07/01 13:24:15;;;;;;;4.32;1.73;;;;;;;;;;10292255;28;20080;-61
2023/07/01 13:29:15;;;;;;;2.00;1.80;;;;;;;;;;10292198;28;20079;-59
2023/07/01 13:34:13;;;;;;;3.33;1.90;;;;;;;;;;10294864;28;20095;-60
2023/07/01 13:39:15;;;;;;;1.95;1.77;;;;;;;;;;10290403;28;20088;-60
2023/07/01 13:44:18;;;;;;;3.10;1.70;;;;;;;;;;10285300;28;20068;-60
2023/07/01 13:49:19;;;;;;;3.92;2.00;;;;;;;;;;10315376;28;20474;-60
2023/07/01 13:54:19;;;;;;;2.63;1.92;;;;;;;;;;10331041;28;20072;-60
2023/07/01 13:59:19;;;;;;;5.68;2.22;;;;;;;;;;10331048;28;20433;-61
2023/07/01 14:04:21;;;;;;;2.80;1.90;;;;;;;;;;10332703;28;20067;-61
2023/07/01 14:09:21;;;;;;;2.73;2.53;;;;;;;;;;10330722;28;20477;-61
2023/07/01 14:14:21;;;;;;;4.60;2.53;;;;;;;;;;10330890;28;20075;-60
2023/07/01 14:19:19;;;;;;;2.13;1.90;;;;;;;;;;10334386;28;20071;-60
2023/07/01 14:24:23;;;;;;;2.55;1.92;;;;;;;;;;10329687;28;20474;-60
2023/07/01 14:29:23;;;;;;;2.17;1.77;;;;;;;;;;10330578;28;20506;-60
2023/07/01 14:34:29;;;;;;;4.32;2.05;;;;;;;;;;10332302;28;20064;-60
2023/07/01 14:39:43;;;;;;;2.45;1.80;;;;;;;;;;10329704;28;20063;-60
2023/07/01 14:44:43;;;;;;;3.10;1.77;;;;;;;;;;10330814;28;20509;-60
2023/07/01 14:49:41;;;;;;;3.78;2.05;;;;;;;;;;10328622;28;20076;-60
2023/07/01 14:54:39;;;;;;;3.03;1.67;;;;;;;;;;10328140;28;20068;-60
2023/07/01 14:59:37;;;;;;;3.05;2.22;;;;;;;;;;10330146;28;20074;-60
2023/07/01 15:04:37;;;;;;;4.10;1.98;;;;;;;;;;10333213;28;20076;-61
2023/07/01 15:09:36;;;;;;;7.03;4.35;;;;;;;;;;10329342;28;20098;-60
2023/07/01 15:14:34;;;;;;;5.53;2.42;;;;;;;;;;10336615;28;20082;-61
2023/07/01 15:19:32;;;;;;;6.57;3.58;;;;;;;;;;10339646;28;20064;-59
2023/07/01 15:24:32;;;;;;;15.77;7.90;;;;;;;;;;10337374;28;20086;-59
2023/07/01 15:29:30;;;;;;;18.50;10.32;;;;;;;;;;10336485;28;20068;-61
2023/07/01 15:34:28;;;;;;;8.13;3.17;;;;;;;;;;10335359;28;20509;-59
2023/07/01 15:39:26;;;;;;;4.22;3.47;;;;;;;;;;10332596;28;20223;-60
2023/07/01 15:44:26;;;;;;;9.50;4.95;;;;;;;;;;10336924;28;20083;-59
2023/07/01 15:49:25;;;;;;;15.32;8.52;;;;;;;;;;10335131;28;20625;-59
2023/07/01 15:54:23;;;;;;;3.83;3.17;;;;;;;;;;10337497;28;20079;-59
2023/07/01 15:59:22;;;;;;;5.68;2.95;;;;;;;;;;10336771;28;20327;-59
2023/07/01 16:04:22;;;;;;;8.05;6.22;;;;;;;;;;10333034;28;20076;-60
2023/07/01 16:09:51;;;;;;;4.00;3.40;;;;;;;;;;10335711;28;20442;-60
2023/07/01 16:15:00;;;;;;;5.85;3.45;;;;;;;;;;10336395;28;20496;-59
2023/07/01 16:20:00;;;;;;;8.32;4.85;;;;;;;;;;10332141;28;20067;-60
2023/07/01 16:24:59;;;;;;;5.43;4.88;;;;;;;;;;10336058;28;20072;-60
2023/07/01 16:30:00;;;;;;;23.48;5.32;;;;;;;;;;10333212;28;20079;-60
2023/07/01 16:35:00;;;;;;;6.10;2.85;;;;;;;;;;10332956;28;20075;-60
2023/07/01 16:39:58;;;;;;;6.38;3.30;;;;;;;;;;10317382;28;20040;-59
2023/07/01 16:44:56;;;;;;;3.15;2.80;;;;;;;;;;10335523;28;20075;-59
2023/07/01 16:49:57;;;;;;;5.13;3.50;;;;;;;;;;10333552;28;20090;-59
2023/07/01 16:54:56;;;;;;;3.20;2.20;;;;;;;;;;10333090;28;20076;-60
2023/07/01 16:59:55;;;;;;;3.72;2.53;;;;;;;;;;10331829;28;20480;-59
2023/07/01 17:04:53;;;;;;;9.82;8.18;;;;;;;;;;10330693;28;20115;-60
2023/07/01 17:09:51;;;;;;;10.63;6.13;;;;;;;;;;10327837;28;20083;-60
2023/07/01 17:14:55;;;;;;;14.00;10.32;;;;;;;;;;10333343;28;20076;-60
2023/07/01 17:19:53;;;;;;;7.63;6.13;;;;;;;;;;10331269;28;20170;-60
2023/07/01 17:24:51;;;;;;;6.15;3.75;;;;;;;;;;10330613;28;20084;-59
2023/07/01 17:29:50;;;;;;;5.15;3.83;;;;;;;;;;10328110;28;20068;-61
2023/07/01 17:34:53;;;;;;;11.30;4.63;;;;;;;;;;10313933;28;20072;-60
2023/07/01 17:39:51;;;;;;;4.78;2.75;;;;;;;;;;10331100;28;20072;-60
2023/07/01 17:44:51;;;;;;;4.30;2.83;;;;;;;;;;10332469;28;20087;-60
2023/07/01 17:49:50;;;;;;;7.18;2.97;;;;;;;;;;10331161;28;20072;-60
2023/07/01 17:54:51;;;;;;;5.80;3.80;;;;;;;;;;10331278;28;20072;-61
2023/07/01 18:00:06;;;;;;;6.68;3.85;;;;;;;;;;10331759;28;20079;-60
2023/07/01 18:05:11;;;;;;;4.03;3.63;;;;;;;;;;10334210;28;20095;-60
2023/07/01 18:10:09;;;;;;;13.85;4.72;;;;;;;;;;10325828;28;20130;-61
2023/07/01 18:15:08;;;;;;;7.60;3.67;;;;;;;;;;10325799;28;20075;-60
2023/07/01 18:20:15;;;;;;;5.45;4.20;;;;;;;;;;10331052;28;20087;-60
2023/07/01 18:25:13;;;;;;;4.55;4.15;;;;;;;;;;10328670;28;20079;-60
2023/07/01 18:30:12;;;;;;;5.90;4.00;;;;;;;;;;10329117;28;20454;-60
2023/07/01 18:35:14;;;;;;;8.63;3.53;;;;;;;;;;10329908;28;20068;-60
2023/07/01 18:40:14;;;;;;;3.50;3.08;;;;;;;;;;10329405;28;20083;-60
2023/07/01 18:45:13;;;;;;;4.07;3.00;;;;;;;;;;10329654;28;20064;-60
2023/07/01 18:50:11;;;;;;;6.25;2.65;;;;;;;;;;10337124;28;20076;-60
2023/07/01 18:55:11;;;;;;;3.55;2.90;;;;;;;;;;10336797;28;20084;-60
2023/07/01 19:00:10;;;;;;;3.17;2.88;;;;;;;;;;10332038;28;20076;-60
2023/07/01 19:05:08;;;;;;;4.30;2.47;;;;;;;;;;10340076;28;20082;-60
2023/07/01 19:10:07;;;;;;;5.03;2.97;;;;;;;;;;10336804;28;20071;-60
2023/07/01 19:15:07;;;;;;;4.45;2.70;;;;;;;;;;10320075;28;20103;-60
2023/07/01 19:20:07;;;;;;;3.85;2.33;;;;;;;;;;10327144;28;20084;-60
2023/07/01 19:25:08;;;;;;;2.88;2.33;;;;;;;;;;10335891;28;20071;-59
2023/07/01 19:30:09;;;;;;;3.78;2.40;;;;;;;;;;10336068;28;20068;-59
2023/07/01 19:35:11;;;;;;;8.35;3.00;;;;;;;;;;10336867;28;20076;-59
2023/07/01 19:40:10;;;;;;;4.43;2.67;;;;;;;;;;10336012;28;20072;-60
2023/07/01 19:45:10;;;;;;;8.98;3.00;;;;;;;;;;10335657;28;20079;-61
2023/07/01 19:50:10;;;;;;;7.45;2.60;;;;;;;;;;10336406;28;20091;-61
2023/07/01 19:55:09;;;;;;;7.50;3.38;;;;;;;;;;10334578;28;20076;-58
2023/07/01 20:00:08;;;;;;;7.78;2.67;;;;;;;;;;10336755;28;20486;-61
2023/07/01 20:05:09;;;;;;;5.72;3.17;;;;;;;;;;10336462;28;20088;-61
2023/07/01 20:10:08;;;;;;;11.25;3.17;;;;;;;;;;10310314;28;20532;-59
2023/07/01 20:15:21;;;;;;;3.72;2.60;;;;;;;;;;10333716;28;20106;-59
2023/07/01 20:20:21;;;;;;;4.43;3.33;;;;;;;;;;10335320;28;20071;-61
2023/07/01 20:25:19;;;;;;;6.75;2.88;;;;;;;;;;10334251;28;20071;-60
2023/07/01 20:30:18;;;;;;;11.57;2.97;;;;;;;;;;10333975;28;20500;-60
2023/07/01 20:35:16;;;;;;;4.03;2.50;;;;;;;;;;10332381;28;20076;-59
2023/07/01 20:40:19;;;;;;;4.15;2.42;;;;;;;;;;10334027;28;20078;-60
2023/07/01 20:45:17;;;;;;;4.63;3.17;;;;;;;;;;10334174;28;20500;-59
2023/07/01 20:50:15;;;;;;;4.55;2.75;;;;;;;;;;10334303;28;20091;-59
2023/07/01 20:55:13;;;;;;;4.45;3.80;;;;;;;;;;10333776;28;20076;-60
2023/07/01 21:00:14;;;;;;;4.90;2.95;;;;;;;;;;10327963;28;20083;-59
2023/07/01 21:05:12;;;;;;;8.90;3.47;;;;;;;;;;10334023;28;20072;-59
2023/07/01 21:10:12;;;;;;;12.18;4.30;;;;;;;;;;10331640;28;20079;-59
2023/07/01 21:15:10;;;;;;;12.07;6.10;;;;;;;;;;10332617;28;20088;-60
2023/07/01 21:20:10;;;;;;;13.88;5.63;;;;;;;;;;10332329;28;20068;-60
2023/07/01 21:25:10;;;;;;;13.65;5.43;;;;;;;;;;10331367;28;20080;-60
2023/07/01 21:30:10;;;;;;;9.23;4.63;;;;;;;;;;10332910;28;20080;-60
2023/07/01 21:35:12;;;;;;;13.00;5.43;;;;;;;;;;10332911;28;20507;-59
2023/07/01 21:40:11;;;;;;;14.73;4.78;;;;;;;;;;10331353;28;20079;-60
2023/07/01 21:45:19;;;;;;;13.60;4.78;;;;;;;;;;10332604;28;20124;-60
2023/07/01 21:50:38;;;;;;;8.73;4.75;;;;;;;;;;10330120;28;20095;-60
2023/07/01 21:55:36;;;;;;;9.27;4.40;;;;;;;;;;10329970;28;20076;-60
2023/07/01 22:00:34;;;;;;;11.68;3.78;;;;;;;;;;10330253;28;20071;-59
2023/07/01 22:05:34;;;;;;;9.23;3.88;;;;;;;;;;10330858;28;20076;-60
2023/07/01 22:10:32;;;;;;;10.75;4.60;;;;;;;;;;10333728;28;20458;-60
2023/07/01 22:15:35;;;;;;;12.57;4.00;;;;;;;;;;10330623;28;20445;-60
2023/07/01 22:20:34;;;;;;;5.55;3.70;;;;;;;;;;10328335;28;20071;-60
2023/07/01 22:25:32;;;;;;;5.72;3.45;;;;;;;;;;10330396;28;20083;-60
2023/07/01 22:30:31;;;;;;;7.53;3.33;;;;;;;;;;10329174;28;20087;-60
2023/07/01 22:35:29;;;;;;;6.78;3.70;;;;;;;;;;10315162;28;20090;-58
2023/07/01 22:40:29;;;;;;;6.57;3.38;;;;;;;;;;10330004;28;20103;-61
2023/07/01 22:45:27;;;;;;;8.13;3.53;;;;;;;;;;10329376;28;20088;-59
2023/07/01 22:50:25;;;;;;;7.03;3.60;;;;;;;;;;10330131;28;20091;-60
2023/07/01 22:55:24;;;;;;;7.75;3.47;;;;;;;;;;10328399;28;21034;-58
2023/07/01 23:00:23;;;;;;;9.45;3.58;;;;;;;;;;10330244;28;20063;-59
2023/07/01 23:05:21;;;;;;;8.80;3.72;;;;;;;;;;10324891;28;20072;-60
2023/07/01 23:10:20;;;;;;;5.15;3.53;;;;;;;;;;10329359;28;20079;-60
2023/07/01 23:15:23;;;;;;;10.15;5.07;;;;;;;;;;10328720;28;20072;-60
2023/07/01 23:20:21;;;;;;;6.97;3.55;;;;;;;;;;10329463;28;20075;-59
2023/07/01 23:25:19;;;;;;;10.50;4.20;;;;;;;;;;10328938;28;20165;-59
2023/07/01 23:30:17;;;;;;;6.25;3.78;;;;;;;;;;10329374;28;20104;-60
2023/07/01 23:35:17;;;;;;;11.95;5.00;;;;;;;;;;10335529;28;20443;-60
2023/07/01 23:40:15;;;;;;;13.43;4.40;;;;;;;;;;10335500;28;20475;-60
2023/07/01 23:45:14;;;;;;;11.40;3.88;;;;;;;;;;10336613;28;20068;-60
2023/07/01 23:50:15;;;;;;;11.75;4.05;;;;;;;;;;10336301;28;20090;-60
2023/07/01 23:55:15;;;;;;;10.95;4.47;;;;;;;;;;10337231;28;20480;-60
